KBYI/BYI METAR and TAF weather

Enter ICAO airport designator
Station Type Date Time Source
KBYI METAR 2019/10/18 05:53 UTC NOAA

KBYI 180553Z AUTO 23006KT 10SM CLR 03/M02 A2986 RMK AO2 SLP101 T00331017 10106 20033 53012


Station Type Date Time Source
KBYI Decoded METAR 2019/10/18 05:53 UTC NOAA

BURLEY MUNICIPAL AIRPORT, ID, United States (KBYI) 42-33N 113-46W 1264M
Oct 18, 2019 - 01:53 AM EDT / 2019.10.18 0553 UTC
Wind: from the SW (230 degrees) at 7 MPH (6 KT):0
Visibility: 10 mile(s):0
Sky conditions: clear
Temperature: 37.9 F (3.3 C)
Dew Point: 28.9 F (-1.7 C)
Relative Humidity: 69%
Pressure (altimeter): 29.86 in. Hg (1011 hPa)
Pressure tendency: 0.04 inches (1.2 hPa) higher than three hours ago
ob: KBYI 180553Z AUTO 23006KT 10SM CLR 03/M02 A2986 RMK AO2 SLP101 T00331017 10106 20033 53012
cycle: 6

Station Type Date Time Source
KBYI TAF 2019/10/18 06:22 UTC NOAA

TAF KBYI 180520Z 1806/1906 24010KT P6SM SCT040
FM181700 27015G25KT P6SM FEW050 BKN060

Example: see airport list